createdAt,value
2023-03-06T00:01:25.735Z,1.40
2023-03-06T00:03:56.313Z,1.50
2023-03-06T00:06:26.013Z,1.95
2023-03-06T00:08:55.220Z,1.55
2023-03-06T00:11:24.870Z,1.75
2023-03-06T00:13:54.023Z,1.90
2023-03-06T00:16:23.524Z,1.63
2023-03-06T00:18:52.886Z,1.70
2023-03-06T00:21:23.745Z,1.73
2023-03-06T00:23:52.941Z,2.05
2023-03-06T00:26:22.362Z,1.60
2023-03-06T00:28:52.122Z,1.58
2023-03-06T00:31:21.520Z,1.97
2023-03-06T00:33:50.745Z,1.83
2023-03-06T00:36:22.136Z,1.98
2023-03-06T00:38:51.463Z,1.58
2023-03-06T00:41:21.072Z,1.60
2023-03-06T00:43:50.261Z,1.87
2023-03-06T00:46:19.654Z,1.98
2023-03-06T00:48:48.812Z,1.75
2023-03-06T00:51:19.906Z,1.77
2023-03-06T00:53:50.525Z,1.50
2023-03-06T00:56:20.932Z,1.40
2023-03-06T00:58:50.226Z,1.27
2023-03-06T01:01:19.702Z,1.83
2023-03-06T01:03:49.105Z,1.92
2023-03-06T01:06:18.659Z,1.50
2023-03-06T01:08:49.397Z,1.60
2023-03-06T01:11:20.186Z,1.60
2023-03-06T01:13:49.762Z,1.97
2023-03-06T01:16:21.299Z,1.70
2023-03-06T01:18:51.281Z,1.52
2023-03-06T01:21:20.829Z,1.50
2023-03-06T01:23:51.524Z,1.40
2023-03-06T01:26:21.072Z,1.30
2023-03-06T01:28:50.335Z,1.20
2023-03-06T01:31:19.851Z,1.58
2023-03-06T01:33:49.005Z,1.30
2023-03-06T01:36:18.806Z,1.50
2023-03-06T01:38:48.070Z,1.30
2023-03-06T01:41:21.177Z,1.30
2023-03-06T01:43:51.213Z,1.20
2023-03-06T01:49:01.467Z,1.40
2023-03-06T01:51:34.448Z,1.10
2023-03-06T01:54:10.157Z,0.90
2023-03-06T01:56:45.481Z,1.08
2023-03-06T01:59:15.271Z,1.30
2023-03-06T02:01:45.928Z,1.40
2023-03-06T02:04:17.686Z,1.15
2023-03-06T02:06:48.331Z,1.40
2023-03-06T02:09:18.145Z,0.90
2023-03-06T02:11:49.055Z,1.30
2023-03-06T02:14:19.583Z,1.38
2023-03-06T02:16:49.644Z,1.25
2023-03-06T02:19:31.144Z,1.27
2023-03-06T02:22:01.276Z,1.30
2023-03-06T02:24:38.609Z,1.40
2023-03-06T02:27:14.294Z,0.98
2023-03-06T02:29:43.816Z,1.17
2023-03-06T02:32:13.649Z,0.73
2023-03-06T02:34:58.076Z,1.08
2023-03-06T02:37:29.927Z,1.23
2023-03-06T02:40:12.351Z,1.40
2023-03-06T02:42:48.062Z,1.15
2023-03-06T02:45:23.350Z,1.20
2023-03-06T02:47:52.825Z,0.93
2023-03-06T02:50:22.107Z,1.60
2023-03-06T02:52:51.635Z,1.17
2023-03-06T02:55:20.881Z,1.10
2023-03-06T02:57:52.105Z,1.38
2023-03-06T03:00:22.172Z,1.10
2023-03-06T03:05:21.320Z,1.15
2023-03-06T03:07:57.737Z,1.05
2023-03-06T03:10:27.245Z,1.20
2023-03-06T03:12:58.746Z,1.25
2023-03-06T03:15:28.139Z,1.13
2023-03-06T03:17:57.584Z,1.13
2023-03-06T03:20:26.775Z,1.23
2023-03-06T03:22:57.505Z,1.20
2023-03-06T03:25:27.628Z,1.25
2023-03-06T03:28:01.248Z,0.73
2023-03-06T03:30:31.162Z,0.98
2023-03-06T03:33:00.893Z,1.45
2023-03-06T03:35:30.180Z,1.60
2023-03-06T03:38:00.250Z,1.00
2023-03-06T03:40:29.968Z,1.02
2023-03-06T03:43:02.748Z,1.27
2023-03-06T03:45:32.111Z,1.15
2023-03-06T03:48:01.573Z,0.98
2023-03-06T03:50:30.847Z,1.20
2023-03-06T03:53:00.292Z,0.85
2023-03-06T03:55:30.112Z,1.00
2023-03-06T03:58:01.365Z,0.98
2023-03-06T04:00:30.961Z,0.80
2023-03-06T04:03:10.449Z,1.30
2023-03-06T04:05:43.771Z,1.05
2023-03-06T04:08:16.258Z,1.20
2023-03-06T04:10:48.003Z,1.20
2023-03-06T04:13:21.127Z,1.10
2023-03-06T04:15:53.061Z,1.25
2023-03-06T04:18:25.389Z,1.17
2023-03-06T04:20:57.480Z,1.10
2023-03-06T04:23:28.014Z,1.13
2023-03-06T04:28:28.446Z,1.00
2023-03-06T04:30:58.038Z,1.20
2023-03-06T04:33:27.885Z,1.02
2023-03-06T04:35:57.561Z,1.13
2023-03-06T04:38:31.338Z,1.08
2023-03-06T04:41:00.681Z,1.30
2023-03-06T04:43:31.634Z,1.10
2023-03-06T04:46:00.829Z,1.20
2023-03-06T04:48:30.394Z,1.40
2023-03-06T04:50:59.503Z,1.70
2023-03-06T04:53:28.994Z,1.90
2023-03-06T04:55:58.168Z,2.95
2023-03-06T04:58:27.746Z,2.87
2023-03-06T05:00:58.515Z,2.67
2023-03-06T05:03:28.006Z,2.53
2023-03-06T05:05:57.211Z,2.10
2023-03-06T05:08:26.718Z,2.53
2023-03-06T05:10:57.692Z,2.42
2023-03-06T05:13:28.604Z,2.15
2023-03-06T05:16:03.811Z,2.08
2023-03-06T05:18:33.735Z,1.52
2023-03-06T05:21:03.449Z,1.95
2023-03-06T05:23:34.550Z,1.98
2023-03-06T05:26:06.632Z,2.80
2023-03-06T05:28:36.151Z,3.55
2023-03-06T05:31:07.996Z,3.75
2023-03-06T05:33:38.577Z,3.60
2023-03-06T05:38:38.703Z,1.85
2023-03-06T05:41:07.874Z,1.77
2023-03-06T05:43:37.390Z,1.83
2023-03-06T05:46:08.884Z,2.08
2023-03-06T05:48:38.825Z,2.00
2023-03-06T05:51:08.212Z,1.85
2023-03-06T05:53:37.995Z,2.25
2023-03-06T05:56:10.073Z,2.25
2023-03-06T05:58:40.426Z,2.38
2023-03-06T06:01:15.425Z,2.15
2023-03-06T06:03:45.674Z,2.60
2023-03-06T06:06:16.305Z,2.25
2023-03-06T06:08:45.882Z,1.90
2023-03-06T06:11:15.610Z,2.08
2023-03-06T06:13:45.237Z,2.25
2023-03-06T06:16:17.410Z,2.15
2023-03-06T06:18:47.247Z,1.95
2023-03-06T06:21:16.548Z,1.95
2023-03-06T06:23:46.286Z,1.95
2023-03-06T06:26:15.527Z,2.20
2023-03-06T06:28:44.951Z,2.10
2023-03-06T06:31:15.768Z,2.05
2023-03-06T06:33:45.574Z,2.50
2023-03-06T06:36:19.377Z,1.90
2023-03-06T06:38:49.612Z,2.17
2023-03-06T06:41:39.226Z,2.42
2023-03-06T06:44:11.315Z,2.13
2023-03-06T06:49:33.515Z,2.28
2023-03-06T06:52:03.033Z,2.55
2023-03-06T06:54:33.447Z,2.38
2023-03-06T06:57:02.700Z,2.28
2023-03-06T06:59:32.176Z,2.03
2023-03-06T07:02:02.854Z,2.58
2023-03-06T07:04:32.558Z,1.90
2023-03-06T07:07:02.380Z,1.98
2023-03-06T07:09:31.995Z,2.35
2023-03-06T07:12:01.170Z,2.35
2023-03-06T07:14:30.739Z,2.40
2023-03-06T07:17:01.279Z,1.80
2023-03-06T07:19:30.747Z,2.08
2023-03-06T07:22:00.417Z,2.13
2023-03-06T07:24:29.944Z,1.77
2023-03-06T07:26:59.196Z,1.88
2023-03-06T07:29:28.664Z,1.45
2023-03-06T07:31:57.814Z,2.08
2023-03-06T07:34:28.860Z,2.25
2023-03-06T07:36:58.077Z,2.05
2023-03-06T07:39:28.175Z,3.08
2023-03-06T07:41:58.670Z,3.00
2023-03-06T07:44:28.340Z,1.70
2023-03-06T07:46:57.535Z,1.83
2023-03-06T07:49:28.577Z,2.28
2023-03-06T07:51:57.788Z,2.25
2023-03-06T07:54:27.285Z,2.60
2023-03-06T07:56:56.460Z,2.05
2023-03-06T07:59:25.935Z,1.90
2023-03-06T08:01:57.526Z,2.10
2023-03-06T08:04:29.121Z,2.38
2023-03-06T08:07:01.616Z,1.60
2023-03-06T08:09:31.086Z,2.00
2023-03-06T08:12:00.227Z,1.80
2023-03-06T08:14:29.785Z,1.70
2023-03-06T08:16:59.023Z,1.80
2023-03-06T08:19:29.914Z,1.95
2023-03-06T08:21:59.128Z,1.60
2023-03-06T08:24:28.645Z,1.43
2023-03-06T08:26:57.794Z,1.95
2023-03-06T08:29:27.207Z,1.50
2023-03-06T08:31:56.442Z,1.52
2023-03-06T08:34:26.625Z,1.33
2023-03-06T08:36:57.170Z,1.40
2023-03-06T08:39:26.743Z,1.50
2023-03-06T08:41:55.873Z,1.52
2023-03-06T08:44:26.877Z,1.25
2023-03-06T08:46:57.067Z,1.73
2023-03-06T08:49:26.548Z,1.40
2023-03-06T08:51:57.165Z,1.50
2023-03-06T08:54:26.712Z,1.70
2023-03-06T08:56:55.834Z,1.60
2023-03-06T08:59:25.883Z,1.40
2023-03-06T09:01:55.200Z,1.38
2023-03-06T09:04:24.744Z,1.45
2023-03-06T09:06:55.506Z,1.60
2023-03-06T09:09:26.482Z,1.23
2023-03-06T09:11:56.459Z,1.20
2023-03-06T09:14:26.002Z,1.42
2023-03-06T09:16:55.144Z,1.42
2023-03-06T09:19:24.720Z,1.65
2023-03-06T09:21:54.090Z,2.13
2023-03-06T09:24:23.561Z,1.70
2023-03-06T09:26:54.167Z,1.38
2023-03-06T09:29:23.792Z,1.30
2023-03-06T09:31:52.945Z,1.42
2023-03-06T09:34:22.420Z,1.23
2023-03-06T09:36:56.727Z,1.65
2023-03-06T09:39:27.639Z,1.45
2023-03-06T09:41:59.467Z,1.40
2023-03-06T09:44:31.938Z,1.90
2023-03-06T09:47:31.753Z,1.60
2023-03-06T09:50:23.839Z,1.90
2023-03-06T09:53:04.629Z,1.85
2023-03-06T09:55:36.984Z,1.50
2023-03-06T09:58:15.257Z,1.60
2023-03-06T10:00:53.036Z,1.50
2023-03-06T10:03:27.260Z,1.67
2023-03-06T10:06:02.592Z,2.03
2023-03-06T10:08:45.208Z,1.92
2023-03-06T10:11:20.919Z,2.45
2023-03-06T10:13:55.272Z,1.75
2023-03-06T10:16:28.718Z,1.90
2023-03-06T10:19:01.345Z,1.40
2023-03-06T10:21:43.650Z,1.60
2023-03-06T10:24:25.088Z,1.52
2023-03-06T10:27:01.171Z,1.92
2023-03-06T10:29:56.331Z,1.88
2023-03-06T10:32:48.408Z,1.75
2023-03-06T10:35:22.750Z,1.63
2023-03-06T10:37:59.547Z,1.38
2023-03-06T10:40:38.984Z,1.45
2023-03-06T10:43:12.483Z,2.03
2023-03-06T10:45:53.685Z,1.30
2023-03-06T10:48:26.098Z,1.52
2023-03-06T10:51:18.133Z,1.40
2023-03-06T10:53:54.139Z,1.42
2023-03-06T10:56:35.137Z,1.55
2023-03-06T10:59:12.407Z,1.60
2023-03-06T11:01:44.885Z,1.63
2023-03-06T11:04:24.282Z,1.30
2023-03-06T11:07:09.077Z,1.20
2023-03-06T11:09:38.695Z,1.30
2023-03-06T11:12:26.421Z,1.63
2023-03-06T11:15:17.516Z,1.20
2023-03-06T11:18:00.350Z,1.30
2023-03-06T11:20:48.610Z,1.70
2023-03-06T11:23:23.002Z,1.30
2023-03-06T11:25:57.388Z,1.23
2023-03-06T11:28:31.440Z,1.52
2023-03-06T11:31:07.246Z,1.90
2023-03-06T11:33:45.388Z,1.55
2023-03-06T11:36:20.073Z,1.20
2023-03-06T11:38:53.033Z,1.63
2023-03-06T11:41:33.632Z,1.25
2023-03-06T11:46:41.407Z,2.00
2023-03-06T11:49:23.467Z,1.88
2023-03-06T11:51:57.279Z,1.88
2023-03-06T11:54:26.657Z,1.63
2023-03-06T11:57:00.764Z,1.30
2023-03-06T11:59:52.662Z,2.28
2023-03-06T12:02:34.510Z,5.03
2023-03-06T12:05:24.411Z,1.98
2023-03-06T12:08:03.140Z,1.35
2023-03-06T12:10:39.685Z,1.33
2023-03-06T12:13:35.277Z,1.60
2023-03-06T12:16:24.462Z,1.50
2023-03-06T12:19:05.113Z,1.40
2023-03-06T12:24:30.724Z,1.38
2023-03-06T12:27:10.391Z,1.20
2023-03-06T12:30:16.695Z,1.10
2023-03-06T12:32:52.764Z,1.00
2023-03-06T12:35:35.710Z,1.30
2023-03-06T12:38:24.887Z,1.30
2023-03-06T12:41:05.530Z,1.70
2023-03-06T12:46:26.071Z,2.22
2023-03-06T12:49:04.569Z,1.70
2023-03-06T12:51:35.085Z,1.70
2023-03-06T12:54:05.944Z,1.33
2023-03-06T12:56:36.538Z,1.30
2023-03-06T12:59:05.982Z,1.10
2023-03-06T13:02:17.638Z,1.27
2023-03-06T13:05:01.411Z,1.55
2023-03-06T13:07:55.716Z,1.40
2023-03-06T13:10:29.321Z,1.75
2023-03-06T13:13:01.208Z,1.27
2023-03-06T13:15:40.332Z,1.38
2023-03-06T13:18:51.640Z,1.27
2023-03-06T13:22:01.409Z,1.77
2023-03-06T13:24:33.905Z,1.42
2023-03-06T13:27:07.399Z,1.42
2023-03-06T13:30:19.695Z,1.42
2023-03-06T13:32:49.828Z,1.40
2023-03-06T13:38:54.785Z,1.10
2023-03-06T13:41:55.567Z,1.02
2023-03-06T13:44:51.848Z,1.15
2023-03-06T13:48:02.466Z,1.23
2023-03-06T13:50:38.473Z,2.03
2023-03-06T13:54:04.964Z,0.73
2023-03-06T13:57:28.759Z,3.20
2023-03-06T14:00:37.758Z,1.98
2023-03-06T14:03:40.150Z,1.13
2023-03-06T14:06:50.465Z,1.00
2023-03-06T14:09:27.532Z,1.48
2023-03-06T14:12:01.931Z,1.90
2023-03-06T14:14:37.236Z,2.70
2023-03-06T14:17:07.286Z,1.95
2023-03-06T14:19:40.414Z,1.70
2023-03-06T14:22:18.345Z,2.22
2023-03-06T14:24:56.522Z,2.05
2023-03-06T14:27:40.903Z,1.73
2023-03-06T14:30:13.371Z,1.65
2023-03-06T14:32:43.603Z,2.80
2023-03-06T14:35:30.558Z,4.40
2023-03-06T14:38:04.359Z,3.05
2023-03-06T14:40:36.452Z,2.63
2023-03-06T14:43:13.927Z,2.97
2023-03-06T14:45:54.392Z,3.95
2023-03-06T14:48:24.816Z,3.47
2023-03-06T14:50:56.359Z,4.72
2023-03-06T14:53:30.070Z,4.70
2023-03-06T14:56:01.528Z,5.13
2023-03-06T14:58:35.610Z,4.25
2023-03-06T15:01:07.906Z,6.60
2023-03-06T15:03:47.018Z,17.65
2023-03-06T15:06:21.003Z,16.92
2023-03-06T15:08:59.097Z,15.20
2023-03-06T15:11:28.340Z,11.80
2023-03-06T15:14:04.678Z,13.73
2023-03-06T15:16:33.936Z,7.53
2023-03-06T15:19:05.616Z,3.95
2023-03-06T15:21:38.780Z,4.00
2023-03-06T15:24:35.133Z,5.65
2023-03-06T15:27:06.339Z,7.55
2023-03-06T15:29:39.705Z,5.13
2023-03-06T15:32:17.562Z,5.38
2023-03-06T15:34:47.100Z,7.88
2023-03-06T15:37:29.100Z,8.20
2023-03-06T15:40:18.425Z,6.60
2023-03-06T15:42:50.010Z,5.25
2023-03-06T15:45:22.129Z,2.50
2023-03-06T15:47:52.612Z,1.70
2023-03-06T15:50:24.452Z,2.47
2023-03-06T15:52:54.723Z,2.70
2023-03-06T15:55:28.558Z,2.97
2023-03-06T15:58:00.692Z,3.00
2023-03-06T16:00:33.098Z,4.13
2023-03-06T16:03:03.069Z,4.25
2023-03-06T16:05:33.257Z,5.65
2023-03-06T16:08:02.555Z,5.75
2023-03-06T16:10:37.345Z,6.03
2023-03-06T16:13:12.283Z,6.07
2023-03-06T16:15:46.386Z,5.55
2023-03-06T16:18:16.977Z,6.47
2023-03-06T16:20:50.564Z,8.90
2023-03-06T16:25:51.343Z,29.17
2023-03-06T16:28:20.636Z,39.33
2023-03-06T16:30:50.150Z,48.55
2023-03-06T16:33:19.409Z,52.88
2023-03-06T16:35:50.019Z,45.58
2023-03-06T16:38:19.342Z,43.33
2023-03-06T16:40:50.204Z,41.88
2023-03-06T16:43:19.325Z,42.20
2023-03-06T16:45:48.821Z,42.00
2023-03-06T16:48:18.344Z,28.00
2023-03-06T16:50:48.062Z,24.17
2023-03-06T16:53:17.261Z,23.23
2023-03-06T16:55:47.477Z,20.13
2023-03-06T16:58:18.102Z,25.52
2023-03-06T17:00:47.656Z,31.05
2023-03-06T17:03:18.455Z,28.85
2023-03-06T17:05:47.985Z,31.05
2023-03-06T17:08:17.161Z,28.67
2023-03-06T17:10:47.932Z,17.55
2023-03-06T17:13:19.806Z,9.82
2023-03-06T17:15:56.587Z,12.57
2023-03-06T17:18:27.058Z,8.25
2023-03-06T17:20:58.582Z,8.73
2023-03-06T17:23:30.539Z,7.10
2023-03-06T17:26:08.110Z,10.73
2023-03-06T17:28:40.307Z,7.90
2023-03-06T17:31:14.938Z,21.55
2023-03-06T17:33:45.244Z,24.33
2023-03-06T17:36:15.586Z,20.42
2023-03-06T17:38:45.101Z,17.23
2023-03-06T17:41:15.009Z,10.32
2023-03-06T17:43:45.632Z,9.57
2023-03-06T17:46:15.237Z,7.13
2023-03-06T17:48:44.565Z,10.48
2023-03-06T17:51:14.694Z,15.40
2023-03-06T17:53:44.608Z,29.63
2023-03-06T17:56:16.381Z,20.15
2023-03-06T17:58:50.254Z,12.15
2023-03-06T18:01:23.282Z,9.80
2023-03-06T18:03:54.715Z,23.55
2023-03-06T18:06:28.121Z,21.00
2023-03-06T18:08:58.249Z,15.52
2023-03-06T18:11:28.913Z,13.20
2023-03-06T18:14:00.395Z,15.55
2023-03-06T18:16:31.141Z,13.00
2023-03-06T18:21:30.245Z,8.95
2023-03-06T18:23:59.929Z,9.10
2023-03-06T18:26:30.860Z,10.20
2023-03-06T18:29:04.441Z,11.43
2023-03-06T18:31:36.630Z,15.23
2023-03-06T18:34:08.222Z,23.30
2023-03-06T18:36:38.482Z,37.28
2023-03-06T18:39:09.807Z,37.20
2023-03-06T18:41:39.925Z,35.03
2023-03-06T18:44:14.524Z,36.55
2023-03-06T18:46:44.431Z,36.88
2023-03-06T18:49:15.872Z,38.27
2023-03-06T18:51:47.301Z,35.78
2023-03-06T18:54:16.782Z,38.28
2023-03-06T18:56:46.549Z,33.50
2023-03-06T18:59:19.034Z,35.80
2023-03-06T19:01:49.389Z,30.90
2023-03-06T19:04:18.817Z,30.13
2023-03-06T19:06:48.540Z,31.30
2023-03-06T19:09:17.864Z,27.50
2023-03-06T19:11:47.667Z,26.08
2023-03-06T19:14:18.929Z,25.60
2023-03-06T19:16:48.530Z,25.27
2023-03-06T19:19:17.783Z,24.10
2023-03-06T19:21:47.232Z,23.43
2023-03-06T19:24:16.706Z,24.10
2023-03-06T19:26:47.476Z,20.23
2023-03-06T19:29:18.549Z,18.10
2023-03-06T19:31:48.168Z,19.13
2023-03-06T19:34:17.358Z,17.17
2023-03-06T19:36:46.954Z,18.85
2023-03-06T19:39:16.272Z,14.43
2023-03-06T19:41:46.891Z,13.93
2023-03-06T19:46:48.297Z,14.30
2023-03-06T19:49:18.240Z,12.55
2023-03-06T19:54:16.701Z,11.88
2023-03-06T19:56:46.436Z,11.63
2023-03-06T19:59:17.128Z,10.68
2023-03-06T20:01:46.820Z,13.63
2023-03-06T20:04:17.533Z,15.87
2023-03-06T20:06:48.216Z,18.02
2023-03-06T20:09:17.757Z,18.83
2023-03-06T20:11:47.244Z,19.35
2023-03-06T20:14:19.414Z,19.98
2023-03-06T20:16:49.413Z,19.50
2023-03-06T20:19:19.392Z,20.35
2023-03-06T20:21:49.175Z,18.55
2023-03-06T20:24:19.287Z,17.95
2023-03-06T20:26:51.212Z,16.60
2023-03-06T20:29:22.250Z,14.77
2023-03-06T20:31:54.237Z,16.40
2023-03-06T20:34:24.122Z,16.48
2023-03-06T20:36:54.139Z,14.45
2023-03-06T20:39:23.469Z,13.68
2023-03-06T20:41:53.036Z,13.52
2023-03-06T20:44:23.862Z,14.02
2023-03-06T20:46:53.564Z,13.18
2023-03-06T20:49:23.018Z,14.23
2023-03-06T20:51:52.594Z,14.43
2023-03-06T20:54:21.870Z,13.95
2023-03-06T20:56:51.596Z,14.55
2023-03-06T20:59:23.800Z,13.48
2023-03-06T21:01:53.728Z,12.73
2023-03-06T21:04:23.263Z,12.68
2023-03-06T21:06:55.296Z,12.07
2023-03-06T21:09:24.523Z,11.27
2023-03-06T21:11:54.127Z,11.73
2023-03-06T21:14:24.719Z,11.90
2023-03-06T21:16:54.310Z,12.20
2023-03-06T21:19:23.471Z,11.38
2023-03-06T21:21:52.952Z,11.70
2023-03-06T21:24:22.204Z,11.93
2023-03-06T21:26:52.150Z,12.50
2023-03-06T21:29:21.518Z,11.35
2023-03-06T21:31:52.576Z,12.10
2023-03-06T21:34:21.762Z,11.80
2023-03-06T21:36:51.269Z,13.55
2023-03-06T21:39:21.118Z,14.70
2023-03-06T21:41:50.741Z,18.35
2023-03-06T21:44:20.029Z,14.88
2023-03-06T21:46:49.587Z,20.17
2023-03-06T21:49:23.001Z,20.92
2023-03-06T21:51:52.842Z,18.63
2023-03-06T21:54:22.040Z,25.03
2023-03-06T21:56:51.765Z,19.65
2023-03-06T21:59:21.001Z,20.30
2023-03-06T22:01:50.678Z,19.58
2023-03-06T22:04:21.303Z,17.83
2023-03-06T22:06:50.892Z,19.02
2023-03-06T22:09:20.263Z,19.75
2023-03-06T22:11:49.753Z,21.90
2023-03-06T22:14:19.117Z,21.45
2023-03-06T22:16:48.691Z,21.75
2023-03-06T22:19:17.952Z,20.05
2023-03-06T22:21:48.819Z,20.50
2023-03-06T22:24:18.032Z,19.77
2023-03-06T22:26:47.462Z,21.02
2023-03-06T22:29:16.643Z,18.40
2023-03-06T22:31:46.060Z,17.97
2023-03-06T22:34:15.227Z,18.35
2023-03-06T22:36:44.657Z,18.13
2023-03-06T22:39:15.697Z,18.15
2023-03-06T22:41:45.131Z,17.48
2023-03-06T22:44:18.355Z,18.00
2023-03-06T22:46:48.064Z,17.38
2023-03-06T22:49:17.349Z,17.33
2023-03-06T22:51:46.832Z,16.88
2023-03-06T22:54:17.414Z,17.30
2023-03-06T22:56:46.948Z,14.90
2023-03-06T22:59:16.069Z,15.02
2023-03-06T23:01:45.448Z,14.07
2023-03-06T23:04:14.620Z,14.07
2023-03-06T23:06:46.726Z,13.75
2023-03-06T23:09:20.705Z,15.52
2023-03-06T23:12:09.256Z,14.88
2023-03-06T23:14:57.517Z,14.57
2023-03-06T23:17:45.601Z,13.93
2023-03-06T23:20:33.529Z,15.00
2023-03-06T23:23:22.006Z,15.00
2023-03-06T23:25:53.055Z,14.13
2023-03-06T23:28:22.492Z,14.57
2023-03-06T23:30:51.819Z,13.52
2023-03-06T23:33:21.380Z,13.55
2023-03-06T23:35:50.837Z,11.88
2023-03-06T23:38:20.402Z,11.63
2023-03-06T23:40:51.490Z,12.20
2023-03-06T23:43:21.013Z,10.40
2023-03-06T23:45:56.870Z,11.02
2023-03-06T23:48:27.110Z,11.07
2023-03-06T23:50:56.418Z,10.68
2023-03-06T23:53:25.987Z,10.57
2023-03-06T23:55:56.656Z,11.33
2023-03-06T23:58:26.197Z,11.40
